sensor_id;sensor_type;location;lat;lon;timestamp;P1;durP1;ratioP1;P2;durP2;ratioP2
7047;SDS011;3565;53.254;10.352;2022-10-31T00:01:28;17.53;;;11.47;;
7047;SDS011;3565;53.254;10.352;2022-10-31T00:03:59;14.70;;;10.77;;
7047;SDS011;3565;53.254;10.352;2022-10-31T00:06:28;20.07;;;12.00;;
7047;SDS011;3565;53.254;10.352;2022-10-31T00:08:57;17.87;;;11.43;;
7047;SDS011;3565;53.254;10.352;2022-10-31T00:11:28;16.00;;;10.80;;
7047;SDS011;3565;53.254;10.352;2022-10-31T00:13:57;16.67;;;11.13;;
7047;SDS011;3565;53.254;10.352;2022-10-31T00:16:27;26.70;;;15.50;;
7047;SDS011;3565;53.254;10.352;2022-10-31T00:18:57;27.00;;;15.87;;
7047;SDS011;3565;53.254;10.352;2022-10-31T00:21:27;24.27;;;15.97;;
7047;SDS011;3565;53.254;10.352;2022-10-31T00:23:57;30.30;;;16.60;;
7047;SDS011;3565;53.254;10.352;2022-10-31T00:26:27;30.53;;;18.60;;
7047;SDS011;3565;53.254;10.352;2022-10-31T00:28:56;26.60;;;18.07;;
7047;SDS011;3565;53.254;10.352;2022-10-31T00:31:25;27.83;;;17.73;;
7047;SDS011;3565;53.254;10.352;2022-10-31T00:33:53;30.00;;;19.63;;
7047;SDS011;3565;53.254;10.352;2022-10-31T00:36:23;33.40;;;17.50;;
7047;SDS011;3565;53.254;10.352;2022-10-31T00:38:51;27.47;;;18.07;;
7047;SDS011;3565;53.254;10.352;2022-10-31T00:41:20;33.07;;;18.03;;
7047;SDS011;3565;53.254;10.352;2022-10-31T00:43:49;27.13;;;18.13;;
7047;SDS011;3565;53.254;10.352;2022-10-31T00:46:18;31.60;;;18.90;;
7047;SDS011;3565;53.254;10.352;2022-10-31T00:48:46;34.20;;;19.97;;
7047;SDS011;3565;53.254;10.352;2022-10-31T00:51:16;31.83;;;19.97;;
7047;SDS011;3565;53.254;10.352;2022-10-31T00:53:43;26.17;;;18.07;;
7047;SDS011;3565;53.254;10.352;2022-10-31T00:56:12;36.67;;;20.07;;
7047;SDS011;3565;53.254;10.352;2022-10-31T00:58:41;32.50;;;19.57;;
7047;SDS011;3565;53.254;10.352;2022-10-31T01:01:23;31.30;;;19.73;;
7047;SDS011;3565;53.254;10.352;2022-10-31T01:03:53;30.77;;;19.17;;
7047;SDS011;3565;53.254;10.352;2022-10-31T01:06:22;34.73;;;19.63;;
7047;SDS011;3565;53.254;10.352;2022-10-31T01:08:52;25.77;;;17.57;;
7047;SDS011;3565;53.254;10.352;2022-10-31T01:11:22;28.57;;;18.43;;
7047;SDS011;3565;53.254;10.352;2022-10-31T01:14:08;28.87;;;18.20;;
7047;SDS011;3565;53.254;10.352;2022-10-31T01:16:38;26.10;;;16.37;;
7047;SDS011;3565;53.254;10.352;2022-10-31T01:19:07;27.23;;;16.63;;
7047;SDS011;3565;53.254;10.352;2022-10-31T01:21:36;24.40;;;16.67;;
7047;SDS011;3565;53.254;10.352;2022-10-31T01:24:07;30.17;;;17.43;;
7047;SDS011;3565;53.254;10.352;2022-10-31T01:26:36;30.93;;;17.57;;
7047;SDS011;3565;53.254;10.352;2022-10-31T01:29:06;20.37;;;15.37;;
7047;SDS011;3565;53.254;10.352;2022-10-31T01:31:37;28.90;;;17.63;;
7047;SDS011;3565;53.254;10.352;2022-10-31T01:34:07;26.53;;;18.40;;
7047;SDS011;3565;53.254;10.352;2022-10-31T01:36:37;25.57;;;17.13;;
7047;SDS011;3565;53.254;10.352;2022-10-31T01:39:07;27.83;;;17.73;;
7047;SDS011;3565;53.254;10.352;2022-10-31T01:41:39;27.20;;;18.17;;
7047;SDS011;3565;53.254;10.352;2022-10-31T01:53:07;41.80;;;23.87;;
7047;SDS011;3565;53.254;10.352;2022-10-31T01:55:38;35.30;;;22.67;;
7047;SDS011;3565;53.254;10.352;2022-10-31T01:58:11;37.40;;;22.87;;
7047;SDS011;3565;53.254;10.352;2022-10-31T02:00:41;42.07;;;24.90;;
7047;SDS011;3565;53.254;10.352;2022-10-31T02:03:14;43.10;;;25.80;;
7047;SDS011;3565;53.254;10.352;2022-10-31T02:05:44;44.27;;;25.20;;
7047;SDS011;3565;53.254;10.352;2022-10-31T02:08:15;44.10;;;26.40;;
7047;SDS011;3565;53.254;10.352;2022-10-31T02:10:46;47.83;;;26.90;;
7047;SDS011;3565;53.254;10.352;2022-10-31T02:13:15;47.97;;;27.70;;
7047;SDS011;3565;53.254;10.352;2022-10-31T02:15:45;46.67;;;27.83;;
7047;SDS011;3565;53.254;10.352;2022-10-31T02:18:17;48.53;;;28.90;;
7047;SDS011;3565;53.254;10.352;2022-10-31T02:20:50;53.63;;;29.33;;
7047;SDS011;3565;53.254;10.352;2022-10-31T02:26:43;53.93;;;31.97;;
7047;SDS011;3565;53.254;10.352;2022-10-31T02:32:51;56.70;;;32.90;;
7047;SDS011;3565;53.254;10.352;2022-10-31T02:35:31;62.90;;;34.10;;
7047;SDS011;3565;53.254;10.352;2022-10-31T02:38:09;63.97;;;34.93;;
7047;SDS011;3565;53.254;10.352;2022-10-31T02:40:39;73.97;;;37.47;;
7047;SDS011;3565;53.254;10.352;2022-10-31T02:43:11;73.50;;;36.53;;
7047;SDS011;3565;53.254;10.352;2022-10-31T02:45:44;72.73;;;37.20;;
7047;SDS011;3565;53.254;10.352;2022-10-31T02:48:14;86.50;;;39.93;;
7047;SDS011;3565;53.254;10.352;2022-10-31T02:50:47;68.40;;;36.73;;
7047;SDS011;3565;53.254;10.352;2022-10-31T02:53:19;67.20;;;37.47;;
7047;SDS011;3565;53.254;10.352;2022-10-31T02:55:58;80.60;;;36.93;;
7047;SDS011;3565;53.254;10.352;2022-10-31T02:58:30;67.83;;;36.43;;
7047;SDS011;3565;53.254;10.352;2022-10-31T03:04:13;69.40;;;36.03;;
7047;SDS011;3565;53.254;10.352;2022-10-31T03:07:03;74.10;;;37.40;;
7047;SDS011;3565;53.254;10.352;2022-10-31T03:09:39;77.50;;;37.80;;
7047;SDS011;3565;53.254;10.352;2022-10-31T03:12:10;78.80;;;39.27;;
7047;SDS011;3565;53.254;10.352;2022-10-31T03:14:43;82.63;;;38.87;;
7047;SDS011;3565;53.254;10.352;2022-10-31T03:19:48;68.63;;;36.20;;
7047;SDS011;3565;53.254;10.352;2022-10-31T03:22:21;71.07;;;37.63;;
7047;SDS011;3565;53.254;10.352;2022-10-31T03:24:52;74.53;;;37.33;;
7047;SDS011;3565;53.254;10.352;2022-10-31T03:27:24;75.27;;;37.67;;
7047;SDS011;3565;53.254;10.352;2022-10-31T03:29:56;78.43;;;36.40;;
7047;SDS011;3565;53.254;10.352;2022-10-31T03:32:29;66.60;;;36.13;;
7047;SDS011;3565;53.254;10.352;2022-10-31T03:35:01;72.17;;;37.60;;
7047;SDS011;3565;53.254;10.352;2022-10-31T03:37:33;75.87;;;37.87;;
7047;SDS011;3565;53.254;10.352;2022-10-31T03:40:04;69.83;;;37.67;;
7047;SDS011;3565;53.254;10.352;2022-10-31T03:42:38;74.27;;;37.80;;
7047;SDS011;3565;53.254;10.352;2022-10-31T03:45:10;73.17;;;36.13;;
7047;SDS011;3565;53.254;10.352;2022-10-31T03:50:19;70.13;;;37.80;;
7047;SDS011;3565;53.254;10.352;2022-10-31T03:52:49;78.77;;;37.83;;
7047;SDS011;3565;53.254;10.352;2022-10-31T03:55:22;77.40;;;38.83;;
7047;SDS011;3565;53.254;10.352;2022-10-31T03:57:55;74.90;;;37.77;;
7047;SDS011;3565;53.254;10.352;2022-10-31T04:00:25;70.83;;;36.87;;
7047;SDS011;3565;53.254;10.352;2022-10-31T04:02:57;67.17;;;35.23;;
7047;SDS011;3565;53.254;10.352;2022-10-31T04:05:28;64.00;;;35.53;;
7047;SDS011;3565;53.254;10.352;2022-10-31T04:07:59;66.97;;;37.20;;
7047;SDS011;3565;53.254;10.352;2022-10-31T04:10:31;68.30;;;36.53;;
7047;SDS011;3565;53.254;10.352;2022-10-31T04:13:04;69.80;;;36.73;;
7047;SDS011;3565;53.254;10.352;2022-10-31T04:15:36;73.80;;;38.30;;
7047;SDS011;3565;53.254;10.352;2022-10-31T04:18:08;74.07;;;37.37;;
7047;SDS011;3565;53.254;10.352;2022-10-31T04:20:38;68.00;;;36.67;;
7047;SDS011;3565;53.254;10.352;2022-10-31T04:23:11;68.33;;;36.03;;
7047;SDS011;3565;53.254;10.352;2022-10-31T04:25:43;72.07;;;36.30;;
7047;SDS011;3565;53.254;10.352;2022-10-31T04:28:12;72.23;;;36.60;;
7047;SDS011;3565;53.254;10.352;2022-10-31T04:30:41;73.30;;;37.20;;
7047;SDS011;3565;53.254;10.352;2022-10-31T04:33:10;63.57;;;34.10;;
7047;SDS011;3565;53.254;10.352;2022-10-31T04:35:39;67.77;;;36.90;;
7047;SDS011;3565;53.254;10.352;2022-10-31T04:38:08;64.97;;;34.57;;
7047;SDS011;3565;53.254;10.352;2022-10-31T04:40:38;63.43;;;35.50;;
7047;SDS011;3565;53.254;10.352;2022-10-31T04:43:07;68.90;;;35.40;;
7047;SDS011;3565;53.254;10.352;2022-10-31T04:48:13;65.83;;;33.40;;
7047;SDS011;3565;53.254;10.352;2022-10-31T04:50:43;61.47;;;35.03;;
7047;SDS011;3565;53.254;10.352;2022-10-31T04:53:12;70.47;;;37.07;;
7047;SDS011;3565;53.254;10.352;2022-10-31T04:55:41;69.03;;;36.77;;
7047;SDS011;3565;53.254;10.352;2022-10-31T04:58:10;69.30;;;35.33;;
7047;SDS011;3565;53.254;10.352;2022-10-31T05:00:39;73.60;;;35.30;;
7047;SDS011;3565;53.254;10.352;2022-10-31T05:03:09;74.20;;;36.03;;
7047;SDS011;3565;53.254;10.352;2022-10-31T05:05:38;77.63;;;36.47;;
7047;SDS011;3565;53.254;10.352;2022-10-31T05:08:08;75.07;;;36.53;;
7047;SDS011;3565;53.254;10.352;2022-10-31T05:10:38;81.63;;;37.70;;
7047;SDS011;3565;53.254;10.352;2022-10-31T05:13:07;81.33;;;37.83;;
7047;SDS011;3565;53.254;10.352;2022-10-31T05:15:36;82.67;;;37.87;;
7047;SDS011;3565;53.254;10.352;2022-10-31T05:18:05;84.80;;;36.07;;
7047;SDS011;3565;53.254;10.352;2022-10-31T05:20:35;81.20;;;36.73;;
7047;SDS011;3565;53.254;10.352;2022-10-31T05:23:04;85.20;;;37.27;;
7047;SDS011;3565;53.254;10.352;2022-10-31T05:25:33;84.67;;;37.60;;
7047;SDS011;3565;53.254;10.352;2022-10-31T05:28:02;84.87;;;37.83;;
7047;SDS011;3565;53.254;10.352;2022-10-31T05:30:32;89.00;;;40.00;;
7047;SDS011;3565;53.254;10.352;2022-10-31T05:33:01;85.97;;;39.00;;
7047;SDS011;3565;53.254;10.352;2022-10-31T05:35:31;87.53;;;39.70;;
7047;SDS011;3565;53.254;10.352;2022-10-31T05:38:01;87.00;;;38.23;;
7047;SDS011;3565;53.254;10.352;2022-10-31T05:40:30;80.57;;;36.90;;
7047;SDS011;3565;53.254;10.352;2022-10-31T05:42:59;80.47;;;36.00;;
7047;SDS011;3565;53.254;10.352;2022-10-31T05:45:28;85.30;;;37.40;;
7047;SDS011;3565;53.254;10.352;2022-10-31T05:47:58;80.73;;;36.90;;
7047;SDS011;3565;53.254;10.352;2022-10-31T05:50:28;85.00;;;36.27;;
7047;SDS011;3565;53.254;10.352;2022-10-31T05:52:59;86.30;;;37.33;;
7047;SDS011;3565;53.254;10.352;2022-10-31T05:55:30;77.60;;;36.20;;
7047;SDS011;3565;53.254;10.352;2022-10-31T05:57:59;73.80;;;34.87;;
7047;SDS011;3565;53.254;10.352;2022-10-31T06:00:29;75.17;;;35.53;;
7047;SDS011;3565;53.254;10.352;2022-10-31T06:02:58;66.40;;;32.03;;
7047;SDS011;3565;53.254;10.352;2022-10-31T06:05:29;73.50;;;31.03;;
7047;SDS011;3565;53.254;10.352;2022-10-31T06:07:58;74.73;;;32.27;;
7047;SDS011;3565;53.254;10.352;2022-10-31T06:10:28;58.73;;;28.47;;
7047;SDS011;3565;53.254;10.352;2022-10-31T06:12:57;76.90;;;32.20;;
7047;SDS011;3565;53.254;10.352;2022-10-31T06:15:26;59.63;;;27.83;;
7047;SDS011;3565;53.254;10.352;2022-10-31T06:18:02;70.33;;;32.20;;
7047;SDS011;3565;53.254;10.352;2022-10-31T06:20:33;59.73;;;30.00;;
7047;SDS011;3565;53.254;10.352;2022-10-31T06:23:02;67.23;;;32.23;;
7047;SDS011;3565;53.254;10.352;2022-10-31T06:25:32;53.57;;;25.57;;
7047;SDS011;3565;53.254;10.352;2022-10-31T06:28:02;74.37;;;32.63;;
7047;SDS011;3565;53.254;10.352;2022-10-31T06:30:33;60.60;;;28.17;;
7047;SDS011;3565;53.254;10.352;2022-10-31T06:33:03;67.70;;;30.27;;
7047;SDS011;3565;53.254;10.352;2022-10-31T06:35:33;68.60;;;32.03;;
7047;SDS011;3565;53.254;10.352;2022-10-31T06:38:02;67.53;;;30.87;;
7047;SDS011;3565;53.254;10.352;2022-10-31T06:40:31;58.97;;;29.53;;
7047;SDS011;3565;53.254;10.352;2022-10-31T06:43:00;61.47;;;29.27;;
7047;SDS011;3565;53.254;10.352;2022-10-31T06:45:30;59.23;;;29.23;;
7047;SDS011;3565;53.254;10.352;2022-10-31T06:47:59;55.53;;;27.87;;
7047;SDS011;3565;53.254;10.352;2022-10-31T06:50:29;59.63;;;29.03;;
7047;SDS011;3565;53.254;10.352;2022-10-31T06:52:58;55.70;;;27.63;;
7047;SDS011;3565;53.254;10.352;2022-10-31T06:55:27;47.07;;;23.80;;
7047;SDS011;3565;53.254;10.352;2022-10-31T06:57:57;58.40;;;27.47;;
7047;SDS011;3565;53.254;10.352;2022-10-31T07:00:28;58.07;;;26.20;;
7047;SDS011;3565;53.254;10.352;2022-10-31T07:02:59;49.27;;;24.73;;
7047;SDS011;3565;53.254;10.352;2022-10-31T07:05:29;51.53;;;26.10;;
7047;SDS011;3565;53.254;10.352;2022-10-31T07:08:00;57.23;;;27.10;;
7047;SDS011;3565;53.254;10.352;2022-10-31T07:10:31;50.70;;;24.83;;
7047;SDS011;3565;53.254;10.352;2022-10-31T07:13:02;45.87;;;24.23;;
7047;SDS011;3565;53.254;10.352;2022-10-31T07:15:36;47.90;;;26.07;;
7047;SDS011;3565;53.254;10.352;2022-10-31T07:18:08;48.80;;;24.70;;
7047;SDS011;3565;53.254;10.352;2022-10-31T07:20:39;43.47;;;21.43;;
7047;SDS011;3565;53.254;10.352;2022-10-31T07:23:09;47.43;;;24.37;;
7047;SDS011;3565;53.254;10.352;2022-10-31T07:25:38;44.07;;;22.30;;
7047;SDS011;3565;53.254;10.352;2022-10-31T07:28:10;40.20;;;22.43;;
7047;SDS011;3565;53.254;10.352;2022-10-31T07:30:39;45.27;;;22.00;;
7047;SDS011;3565;53.254;10.352;2022-10-31T07:33:08;40.03;;;21.47;;
7047;SDS011;3565;53.254;10.352;2022-10-31T07:35:37;43.90;;;22.67;;
7047;SDS011;3565;53.254;10.352;2022-10-31T07:38:07;39.97;;;21.27;;
7047;SDS011;3565;53.254;10.352;2022-10-31T07:40:38;44.53;;;22.47;;
7047;SDS011;3565;53.254;10.352;2022-10-31T07:43:08;42.83;;;21.70;;
7047;SDS011;3565;53.254;10.352;2022-10-31T07:45:38;39.13;;;20.17;;
7047;SDS011;3565;53.254;10.352;2022-10-31T07:48:08;31.50;;;18.13;;
7047;SDS011;3565;53.254;10.352;2022-10-31T07:50:37;32.13;;;18.07;;
7047;SDS011;3565;53.254;10.352;2022-10-31T07:53:07;35.93;;;19.97;;
7047;SDS011;3565;53.254;10.352;2022-10-31T07:55:37;35.33;;;18.77;;
7047;SDS011;3565;53.254;10.352;2022-10-31T07:58:07;34.30;;;18.83;;
7047;SDS011;3565;53.254;10.352;2022-10-31T08:00:37;31.63;;;16.70;;
7047;SDS011;3565;53.254;10.352;2022-10-31T08:03:08;29.50;;;17.40;;
7047;SDS011;3565;53.254;10.352;2022-10-31T08:05:39;29.37;;;16.83;;
7047;SDS011;3565;53.254;10.352;2022-10-31T08:08:10;27.33;;;16.37;;
7047;SDS011;3565;53.254;10.352;2022-10-31T08:10:40;29.00;;;18.60;;
7047;SDS011;3565;53.254;10.352;2022-10-31T08:13:10;30.40;;;17.20;;
7047;SDS011;3565;53.254;10.352;2022-10-31T08:15:40;28.07;;;16.47;;
7047;SDS011;3565;53.254;10.352;2022-10-31T08:18:11;24.37;;;14.63;;
7047;SDS011;3565;53.254;10.352;2022-10-31T08:20:42;31.20;;;16.60;;
7047;SDS011;3565;53.254;10.352;2022-10-31T08:23:11;24.97;;;14.63;;
7047;SDS011;3565;53.254;10.352;2022-10-31T08:25:40;22.67;;;14.00;;
7047;SDS011;3565;53.254;10.352;2022-10-31T08:28:10;24.33;;;13.43;;
7047;SDS011;3565;53.254;10.352;2022-10-31T08:30:40;23.30;;;14.80;;
7047;SDS011;3565;53.254;10.352;2022-10-31T08:33:10;21.40;;;13.60;;
7047;SDS011;3565;53.254;10.352;2022-10-31T08:35:40;21.33;;;12.90;;
7047;SDS011;3565;53.254;10.352;2022-10-31T08:38:11;23.77;;;13.13;;
7047;SDS011;3565;53.254;10.352;2022-10-31T08:40:41;22.37;;;13.73;;
7047;SDS011;3565;53.254;10.352;2022-10-31T08:43:11;22.87;;;13.50;;
7047;SDS011;3565;53.254;10.352;2022-10-31T08:45:43;18.93;;;12.30;;
7047;SDS011;3565;53.254;10.352;2022-10-31T08:48:14;20.87;;;12.67;;
7047;SDS011;3565;53.254;10.352;2022-10-31T08:50:45;22.00;;;12.87;;
7047;SDS011;3565;53.254;10.352;2022-10-31T08:53:15;20.83;;;13.63;;
7047;SDS011;3565;53.254;10.352;2022-10-31T08:55:45;22.50;;;12.93;;
7047;SDS011;3565;53.254;10.352;2022-10-31T08:58:16;22.93;;;13.33;;
7047;SDS011;3565;53.254;10.352;2022-10-31T09:00:47;21.07;;;13.17;;
7047;SDS011;3565;53.254;10.352;2022-10-31T09:03:17;20.60;;;12.70;;
7047;SDS011;3565;53.254;10.352;2022-10-31T09:05:47;20.07;;;11.13;;
7047;SDS011;3565;53.254;10.352;2022-10-31T09:08:18;17.40;;;11.63;;
7047;SDS011;3565;53.254;10.352;2022-10-31T09:10:48;20.93;;;11.67;;
7047;SDS011;3565;53.254;10.352;2022-10-31T09:13:18;17.33;;;11.30;;
7047;SDS011;3565;53.254;10.352;2022-10-31T09:15:49;17.53;;;9.73;;
7047;SDS011;3565;53.254;10.352;2022-10-31T09:18:19;16.30;;;10.93;;
7047;SDS011;3565;53.254;10.352;2022-10-31T09:20:51;20.93;;;12.17;;
7047;SDS011;3565;53.254;10.352;2022-10-31T09:23:20;19.03;;;11.40;;
7047;SDS011;3565;53.254;10.352;2022-10-31T09:25:51;17.87;;;11.73;;
7047;SDS011;3565;53.254;10.352;2022-10-31T09:28:22;22.40;;;12.17;;
7047;SDS011;3565;53.254;10.352;2022-10-31T09:30:52;18.77;;;11.53;;
7047;SDS011;3565;53.254;10.352;2022-10-31T09:33:22;19.00;;;11.10;;
7047;SDS011;3565;53.254;10.352;2022-10-31T09:35:51;18.00;;;10.33;;
7047;SDS011;3565;53.254;10.352;2022-10-31T09:38:20;17.50;;;11.43;;
7047;SDS011;3565;53.254;10.352;2022-10-31T09:40:51;18.23;;;10.10;;
7047;SDS011;3565;53.254;10.352;2022-10-31T09:43:37;17.57;;;10.40;;
7047;SDS011;3565;53.254;10.352;2022-10-31T09:46:09;15.73;;;9.30;;
7047;SDS011;3565;53.254;10.352;2022-10-31T09:51:33;15.90;;;8.93;;
7047;SDS011;3565;53.254;10.352;2022-10-31T09:54:05;16.20;;;9.80;;
7047;SDS011;3565;53.254;10.352;2022-10-31T09:56:38;17.93;;;8.83;;
7047;SDS011;3565;53.254;10.352;2022-10-31T09:59:10;16.10;;;9.73;;
7047;SDS011;3565;53.254;10.352;2022-10-31T10:01:42;17.40;;;9.67;;
7047;SDS011;3565;53.254;10.352;2022-10-31T10:04:34;14.77;;;8.83;;
7047;SDS011;3565;53.254;10.352;2022-10-31T10:07:11;17.23;;;10.07;;
7047;SDS011;3565;53.254;10.352;2022-10-31T10:09:42;16.97;;;8.53;;
7047;SDS011;3565;53.254;10.352;2022-10-31T10:12:16;12.60;;;7.77;;
7047;SDS011;3565;53.254;10.352;2022-10-31T10:14:50;13.50;;;8.30;;
7047;SDS011;3565;53.254;10.352;2022-10-31T10:17:25;13.77;;;8.30;;
7047;SDS011;3565;53.254;10.352;2022-10-31T10:20:03;11.80;;;7.57;;
7047;SDS011;3565;53.254;10.352;2022-10-31T10:22:52;12.63;;;7.90;;
7047;SDS011;3565;53.254;10.352;2022-10-31T10:25:23;14.30;;;7.63;;
7047;SDS011;3565;53.254;10.352;2022-10-31T10:28:00;14.20;;;8.83;;
7047;SDS011;3565;53.254;10.352;2022-10-31T10:30:33;12.23;;;8.43;;
7047;SDS011;3565;53.254;10.352;2022-10-31T10:33:08;14.47;;;8.00;;
7047;SDS011;3565;53.254;10.352;2022-10-31T10:35:40;11.70;;;7.33;;
7047;SDS011;3565;53.254;10.352;2022-10-31T10:38:15;13.00;;;7.90;;
7047;SDS011;3565;53.254;10.352;2022-10-31T10:41:03;10.33;;;6.70;;
7047;SDS011;3565;53.254;10.352;2022-10-31T10:43:35;9.83;;;7.10;;
7047;SDS011;3565;53.254;10.352;2022-10-31T10:46:17;14.77;;;8.00;;
7047;SDS011;3565;53.254;10.352;2022-10-31T10:49:09;11.43;;;6.43;;
7047;SDS011;3565;53.254;10.352;2022-10-31T10:51:45;12.03;;;6.87;;
7047;SDS011;3565;53.254;10.352;2022-10-31T10:54:21;13.07;;;6.80;;
7047;SDS011;3565;53.254;10.352;2022-10-31T10:57:29;8.97;;;5.90;;
7047;SDS011;3565;53.254;10.352;2022-10-31T11:00:15;10.40;;;6.10;;
7047;SDS011;3565;53.254;10.352;2022-10-31T11:02:46;11.93;;;6.73;;
7047;SDS011;3565;53.254;10.352;2022-10-31T11:05:20;10.03;;;6.83;;
7047;SDS011;3565;53.254;10.352;2022-10-31T11:07:54;7.27;;;4.80;;
7047;SDS011;3565;53.254;10.352;2022-10-31T11:10:23;8.10;;;5.57;;
7047;SDS011;3565;53.254;10.352;2022-10-31T11:13:02;9.47;;;5.60;;
7047;SDS011;3565;53.254;10.352;2022-10-31T11:15:35;9.43;;;6.40;;
7047;SDS011;3565;53.254;10.352;2022-10-31T11:18:14;8.40;;;5.67;;
7047;SDS011;3565;53.254;10.352;2022-10-31T11:20:49;9.00;;;5.97;;
7047;SDS011;3565;53.254;10.352;2022-10-31T11:23:21;7.87;;;4.80;;
7047;SDS011;3565;53.254;10.352;2022-10-31T11:25:52;6.20;;;4.27;;
7047;SDS011;3565;53.254;10.352;2022-10-31T11:28:23;8.73;;;5.60;;
7047;SDS011;3565;53.254;10.352;2022-10-31T11:30:55;9.77;;;5.00;;
7047;SDS011;3565;53.254;10.352;2022-10-31T11:33:28;7.20;;;5.10;;
7047;SDS011;3565;53.254;10.352;2022-10-31T11:36:00;8.67;;;5.73;;
7047;SDS011;3565;53.254;10.352;2022-10-31T11:38:33;10.63;;;5.47;;
7047;SDS011;3565;53.254;10.352;2022-10-31T11:41:08;10.00;;;5.33;;
7047;SDS011;3565;53.254;10.352;2022-10-31T11:43:45;6.40;;;4.87;;
7047;SDS011;3565;53.254;10.352;2022-10-31T11:46:17;7.40;;;4.27;;
7047;SDS011;3565;53.254;10.352;2022-10-31T11:48:48;9.47;;;4.90;;
7047;SDS011;3565;53.254;10.352;2022-10-31T11:51:20;6.37;;;4.70;;
7047;SDS011;3565;53.254;10.352;2022-10-31T11:53:52;10.80;;;4.90;;
7047;SDS011;3565;53.254;10.352;2022-10-31T11:56:24;4.73;;;3.97;;
7047;SDS011;3565;53.254;10.352;2022-10-31T11:58:56;5.50;;;4.30;;
7047;SDS011;3565;53.254;10.352;2022-10-31T12:01:28;5.63;;;3.73;;
7047;SDS011;3565;53.254;10.352;2022-10-31T12:04:02;6.50;;;4.63;;
7047;SDS011;3565;53.254;10.352;2022-10-31T12:06:33;8.43;;;5.00;;
7047;SDS011;3565;53.254;10.352;2022-10-31T12:09:09;8.17;;;4.60;;
7047;SDS011;3565;53.254;10.352;2022-10-31T12:11:45;5.67;;;3.90;;
7047;SDS011;3565;53.254;10.352;2022-10-31T12:14:20;6.53;;;4.10;;
7047;SDS011;3565;53.254;10.352;2022-10-31T12:16:55;7.20;;;4.03;;
7047;SDS011;3565;53.254;10.352;2022-10-31T12:19:46;6.57;;;4.20;;
7047;SDS011;3565;53.254;10.352;2022-10-31T12:22:20;7.57;;;3.73;;
7047;SDS011;3565;53.254;10.352;2022-10-31T12:24:56;8.53;;;5.20;;
7047;SDS011;3565;53.254;10.352;2022-10-31T12:30:49;6.13;;;4.00;;
7047;SDS011;3565;53.254;10.352;2022-10-31T12:33:28;7.90;;;4.50;;
7047;SDS011;3565;53.254;10.352;2022-10-31T12:36:08;5.87;;;4.10;;
7047;SDS011;3565;53.254;10.352;2022-10-31T12:41:45;8.27;;;5.40;;
7047;SDS011;3565;53.254;10.352;2022-10-31T12:44:25;7.60;;;5.10;;
7047;SDS011;3565;53.254;10.352;2022-10-31T12:50:27;7.87;;;4.60;;
7047;SDS011;3565;53.254;10.352;2022-10-31T12:53:07;5.57;;;3.97;;
7047;SDS011;3565;53.254;10.352;2022-10-31T12:55:46;7.53;;;4.60;;
7047;SDS011;3565;53.254;10.352;2022-10-31T12:58:21;6.20;;;4.20;;
7047;SDS011;3565;53.254;10.352;2022-10-31T13:00:55;6.43;;;4.40;;
7047;SDS011;3565;53.254;10.352;2022-10-31T13:03:28;6.73;;;3.70;;
7047;SDS011;3565;53.254;10.352;2022-10-31T13:06:03;6.37;;;4.23;;
7047;SDS011;3565;53.254;10.352;2022-10-31T13:08:36;6.13;;;4.50;;
7047;SDS011;3565;53.254;10.352;2022-10-31T13:11:09;7.40;;;4.47;;
7047;SDS011;3565;53.254;10.352;2022-10-31T13:13:42;6.13;;;3.90;;
7047;SDS011;3565;53.254;10.352;2022-10-31T13:16:15;6.53;;;3.73;;
7047;SDS011;3565;53.254;10.352;2022-10-31T13:18:46;7.70;;;4.37;;
7047;SDS011;3565;53.254;10.352;2022-10-31T13:21:18;6.17;;;3.80;;
7047;SDS011;3565;53.254;10.352;2022-10-31T13:23:50;6.13;;;3.47;;
7047;SDS011;3565;53.254;10.352;2022-10-31T13:26:22;6.47;;;3.80;;
7047;SDS011;3565;53.254;10.352;2022-10-31T13:29:17;5.07;;;3.77;;
7047;SDS011;3565;53.254;10.352;2022-10-31T13:31:48;7.00;;;4.17;;
7047;SDS011;3565;53.254;10.352;2022-10-31T13:34:19;6.67;;;4.30;;
7047;SDS011;3565;53.254;10.352;2022-10-31T13:36:56;7.67;;;4.07;;
7047;SDS011;3565;53.254;10.352;2022-10-31T13:39:31;8.00;;;4.50;;
7047;SDS011;3565;53.254;10.352;2022-10-31T13:42:08;6.83;;;4.10;;
7047;SDS011;3565;53.254;10.352;2022-10-31T13:44:39;5.23;;;4.20;;
7047;SDS011;3565;53.254;10.352;2022-10-31T13:47:24;7.87;;;3.73;;
7047;SDS011;3565;53.254;10.352;2022-10-31T13:50:03;5.57;;;4.10;;
7047;SDS011;3565;53.254;10.352;2022-10-31T13:52:35;5.37;;;3.47;;
7047;SDS011;3565;53.254;10.352;2022-10-31T13:55:19;16.33;;;4.37;;
7047;SDS011;3565;53.254;10.352;2022-10-31T13:57:53;8.67;;;4.87;;
7047;SDS011;3565;53.254;10.352;2022-10-31T14:00:24;6.27;;;3.77;;
7047;SDS011;3565;53.254;10.352;2022-10-31T14:02:55;9.70;;;4.33;;
7047;SDS011;3565;53.254;10.352;2022-10-31T14:05:26;6.27;;;4.27;;
7047;SDS011;3565;53.254;10.352;2022-10-31T14:07:58;6.87;;;4.40;;
7047;SDS011;3565;53.254;10.352;2022-10-31T14:10:30;6.80;;;4.57;;
7047;SDS011;3565;53.254;10.352;2022-10-31T14:13:06;7.97;;;4.20;;
7047;SDS011;3565;53.254;10.352;2022-10-31T14:15:37;7.30;;;4.47;;
7047;SDS011;3565;53.254;10.352;2022-10-31T14:18:19;12.03;;;5.00;;
7047;SDS011;3565;53.254;10.352;2022-10-31T14:20:50;6.03;;;4.27;;
7047;SDS011;3565;53.254;10.352;2022-10-31T14:23:38;6.73;;;4.73;;
7047;SDS011;3565;53.254;10.352;2022-10-31T14:26:20;8.67;;;5.13;;
7047;SDS011;3565;53.254;10.352;2022-10-31T14:29:00;7.73;;;4.83;;
7047;SDS011;3565;53.254;10.352;2022-10-31T14:31:36;7.37;;;5.20;;
7047;SDS011;3565;53.254;10.352;2022-10-31T14:34:17;8.30;;;4.93;;
7047;SDS011;3565;53.254;10.352;2022-10-31T14:36:53;8.63;;;4.93;;
7047;SDS011;3565;53.254;10.352;2022-10-31T14:39:58;9.77;;;5.40;;
7047;SDS011;3565;53.254;10.352;2022-10-31T14:42:36;9.27;;;5.30;;
7047;SDS011;3565;53.254;10.352;2022-10-31T14:48:28;8.57;;;5.10;;
7047;SDS011;3565;53.254;10.352;2022-10-31T14:51:10;8.60;;;5.10;;
7047;SDS011;3565;53.254;10.352;2022-10-31T14:53:44;8.97;;;5.73;;
7047;SDS011;3565;53.254;10.352;2022-10-31T14:56:17;7.57;;;5.20;;
7047;SDS011;3565;53.254;10.352;2022-10-31T14:58:49;9.53;;;5.90;;
7047;SDS011;3565;53.254;10.352;2022-10-31T15:01:22;9.03;;;6.00;;
7047;SDS011;3565;53.254;10.352;2022-10-31T15:03:54;9.33;;;6.10;;
7047;SDS011;3565;53.254;10.352;2022-10-31T15:06:27;8.97;;;5.93;;
7047;SDS011;3565;53.254;10.352;2022-10-31T15:08:59;9.43;;;5.77;;
7047;SDS011;3565;53.254;10.352;2022-10-31T15:11:28;9.57;;;5.93;;
7047;SDS011;3565;53.254;10.352;2022-10-31T15:14:00;10.03;;;7.33;;
7047;SDS011;3565;53.254;10.352;2022-10-31T15:16:31;12.97;;;6.43;;
7047;SDS011;3565;53.254;10.352;2022-10-31T15:19:04;12.77;;;7.23;;
7047;SDS011;3565;53.254;10.352;2022-10-31T15:21:35;9.73;;;6.43;;
7047;SDS011;3565;53.254;10.352;2022-10-31T15:24:11;9.77;;;6.33;;
7047;SDS011;3565;53.254;10.352;2022-10-31T15:26:45;9.83;;;7.20;;
7047;SDS011;3565;53.254;10.352;2022-10-31T15:29:17;11.30;;;5.97;;
7047;SDS011;3565;53.254;10.352;2022-10-31T15:31:52;12.70;;;7.63;;
7047;SDS011;3565;53.254;10.352;2022-10-31T15:34:24;14.37;;;7.67;;
7047;SDS011;3565;53.254;10.352;2022-10-31T15:36:55;13.07;;;7.60;;
7047;SDS011;3565;53.254;10.352;2022-10-31T15:39:25;9.87;;;6.63;;
7047;SDS011;3565;53.254;10.352;2022-10-31T15:41:54;12.17;;;6.37;;
7047;SDS011;3565;53.254;10.352;2022-10-31T15:44:26;13.47;;;8.00;;
7047;SDS011;3565;53.254;10.352;2022-10-31T15:46:58;10.30;;;6.60;;
7047;SDS011;3565;53.254;10.352;2022-10-31T15:49:34;11.87;;;7.63;;
7047;SDS011;3565;53.254;10.352;2022-10-31T15:52:10;13.63;;;7.37;;
7047;SDS011;3565;53.254;10.352;2022-10-31T15:54:44;10.37;;;7.57;;
7047;SDS011;3565;53.254;10.352;2022-10-31T15:57:16;11.27;;;7.87;;